Time;durP1;ratioP1;P1;durP2;ratioP2;P2;SDS_P1;SDS_P2;PMS_P1;PMS_P2;Temp;Humidity;BMP_temperature;BMP_pressure;BME280_temperature;BME280_humidity;BME280_pressure;Samples;Min_cycle;Max_cycle;Signal;HPM_P1;HPM_P2
2023/04/10 00:01:41;;;;;;;;;;;;;;;7.13;68.99;99322.28;5038258;27;103094;-59
2023/04/10 00:04:09;;;;;;;;;;;;;;;6.78;70.75;99321.34;5047988;27;103391;-59
2023/04/10 00:06:37;;;;;;;;;;;;;;;6.82;69.74;99318.47;5035368;27;103274;-58
2023/04/10 00:09:05;;;;;;;;;;;;;;;6.82;69.93;99317.66;5043837;27;102702;-58
2023/04/10 00:11:32;;;;;;;;;;;;;;;6.70;70.36;99307.72;5051801;27;102977;-59
2023/04/10 00:14:00;;;;;;;;;;;;;;;6.46;70.83;99319.38;5049426;27;103290;-59
2023/04/10 00:16:30;;;;;;;;;;;;;;;6.32;72.22;99312.97;5058921;27;102636;-58
2023/04/10 00:18:59;;;;;;;;;;;;;;;6.30;72.37;99309.56;5061324;27;102646;-59
2023/04/10 00:21:27;;;;;;;;;;;;;;;6.25;73.09;99311.53;5055907;27;102721;-60
2023/04/10 00:23:55;;;;;;;;;;;;;;;6.15;72.74;99304.13;5059508;27;104099;-59
2023/04/10 00:26:23;;;;;;;;;;;;;;;6.20;72.94;99308.25;5055206;27;103006;-59
2023/04/10 00:28:50;;;;;;;;;;;;;;;6.26;72.59;99315.03;5052520;27;102823;-60
2023/04/10 00:31:18;;;;;;;;;;;;;;;6.56;71.63;99310.13;5042002;27;102768;-59
2023/04/10 00:33:46;;;;;;;;;;;;;;;6.01;73.23;99315.25;5047539;27;103196;-59
2023/04/10 00:36:16;;;;;;;;;;;;;;;5.83;74.70;99309.03;5038644;27;104255;-59
2023/04/10 00:38:44;;;;;;;13.37;11.07;;;;;;;5.56;75.41;99310.19;5050529;27;104126;-59
2023/04/10 00:41:14;;;;;;;9.97;8.93;;;;;;;5.57;74.73;99316.28;5031334;27;104021;-59
2023/04/10 00:43:42;;;;;;;10.53;9.53;;;;;;;5.41;75.78;99300.38;5034866;27;103634;-60
2023/04/10 00:46:13;;;;;;;8.60;7.70;;;;;;;5.73;74.39;99304.22;5033638;27;103198;-59
2023/04/10 00:48:44;;;;;;;7.87;7.07;;;;;;;5.86;72.96;99297.56;5036049;27;102742;-59
2023/04/10 00:51:12;;;;;;;11.90;10.50;;;;;;;6.02;72.74;99292.50;5056709;27;102666;-59
2023/04/10 00:53:42;;;;;;;10.23;8.87;;;;;;;5.92;72.84;99289.44;5050983;27;103959;-59
2023/04/10 00:56:11;;;;;;;9.30;7.90;;;;;;;5.95;72.96;99294.53;5050570;27;105261;-59
2023/04/10 00:58:39;;;;;;;7.47;6.77;;;;;;;6.01;72.19;99286.38;5033162;27;102696;-60
2023/04/10 01:01:07;;;;;;;10.43;8.83;;;;;;;6.10;71.45;99288.63;5054247;27;102864;-59
2023/04/10 01:03:36;;;;;;;8.80;7.90;;;;;;;5.99;72.56;99288.25;5026618;27;104135;-59
2023/04/10 01:06:13;;;;;;;10.10;8.63;;;;;;;6.01;72.29;99296.03;5039221;27;103367;-59
2023/04/10 01:08:52;;;;;;;11.43;10.17;;;;;;;5.90;72.35;99298.28;5053492;27;102618;-59
2023/04/10 01:11:33;;;;;;;11.10;9.90;;;;;;;5.82;73.14;99295.97;5048931;27;103143;-59
2023/04/10 01:14:07;;;;;;;10.73;9.63;;;;;;;5.79;73.27;99296.09;5050644;27;104116;-59
2023/04/10 01:16:43;;;;;;;10.53;8.93;;;;;;;5.88;72.96;99290.50;5044718;27;103668;-60
2023/04/10 01:19:24;;;;;;;8.17;6.90;;;;;;;5.97;72.48;99292.72;5036195;27;102730;-59
2023/04/10 01:21:55;;;;;;;10.67;9.50;;;;;;;6.03;71.60;99292.44;5027866;27;104183;-60
2023/04/10 01:24:37;;;;;;;11.00;9.80;;;;;;;5.95;71.68;99297.16;5049857;27;103200;-59
2023/04/10 01:27:17;;;;;;;8.60;7.70;;;;;;;5.75;72.93;99297.16;5041910;27;103525;-60
2023/04/10 01:29:55;;;;;;;11.33;10.13;;;;;;;5.51;73.54;99300.81;5038090;27;102626;-59
2023/04/10 01:32:24;;;;;;;12.37;10.57;;;;;;;5.66;74.29;99303.66;5035656;27;104054;-60
2023/04/10 01:34:55;;;;;;;12.57;10.70;;;;;;;5.35;74.72;99308.47;5053750;27;103317;-59
2023/04/10 01:37:27;;;;;;;11.60;9.80;;;;;;;5.37;75.20;99303.16;5037688;27;103227;-59
2023/04/10 01:40:00;;;;;;;9.73;8.73;;;;;;;5.28;75.44;99300.00;5036885;27;103083;-59
2023/04/10 01:42:31;;;;;;;10.57;9.47;;;;;;;5.23;75.60;99301.97;5035732;27;104050;-59
2023/04/10 01:45:02;;;;;;;12.50;10.90;;;;;;;4.89;76.51;99301.63;5030007;27;103362;-59
2023/04/10 01:47:30;;;;;;;10.17;9.07;;;;;;;5.06;76.77;99299.19;5033383;27;103201;-59
2023/04/10 01:50:01;;;;;;;8.73;7.47;;;;;;;5.51;74.78;99295.56;5031667;27;102879;-59
2023/04/10 01:52:32;;;;;;;10.30;9.20;;;;;;;5.59;73.52;99290.84;5032446;27;103627;-59
2023/04/10 01:55:09;;;;;;;11.40;10.20;;;;;;;5.57;73.35;99284.84;5047229;27;104082;-60
2023/04/10 01:57:47;;;;;;;12.77;10.30;;;;;;;5.59;73.77;99289.09;5030561;27;105273;-59
2023/04/10 02:00:17;;;;;;;11.80;10.60;;;;;;;5.25;75.21;99284.41;5038547;27;103013;-59
2023/04/10 02:02:46;;;;;;;13.07;10.80;;;;;;;5.33;75.49;99288.50;5034981;27;104177;-59
2023/04/10 02:05:16;;;;;;;12.13;10.30;;;;;;;5.23;76.67;99280.16;5062964;27;103224;-59
2023/04/10 02:07:50;;;;;;;11.83;10.53;;;;;;;5.31;75.19;99285.94;5052362;27;103207;-59
2023/04/10 02:10:24;;;;;;;11.40;10.27;;;;;;;5.43;74.63;99277.56;5036716;27;102747;-59
2023/04/10 02:12:55;;;;;;;11.57;9.10;;;;;;;5.51;73.89;99279.84;5036278;27;102632;-60
2023/04/10 02:15:32;;;;;;;12.77;10.60;;;;;;;5.52;73.32;99279.81;5030165;27;103303;-59
2023/04/10 02:18:03;;;;;;;9.37;7.80;;;;;;;5.52;73.98;99286.81;5053238;27;103217;-59
2023/04/10 02:20:32;;;;;;;11.50;9.90;;;;;;;5.23;73.96;99281.03;5058272;27;103727;-60
2023/04/10 02:23:02;;;;;;;11.03;9.93;;;;;;;4.92;76.60;99288.44;5030962;27;104404;-59
2023/04/10 02:25:32;;;;;;;10.53;8.90;;;;;;;4.85;76.93;99294.84;5065327;27;103204;-59
2023/04/10 02:28:04;;;;;;;8.23;7.23;;;;;;;4.96;76.39;99290.03;5054532;27;103280;-59
2023/04/10 02:30:58;;;;;;;12.00;9.80;;;;;;;4.96;75.63;99289.16;5048809;27;102893;-59
2023/04/10 02:33:26;;;;;;;10.93;9.70;;;;;;;5.07;75.31;99290.44;5031022;27;103284;-59
2023/04/10 02:35:54;;;;;;;12.57;9.87;;;;;;;5.23;74.02;99291.50;5051887;27;104047;-60
2023/04/10 02:38:22;;;;;;;12.27;9.70;;;;;;;5.08;74.91;99294.75;5049870;27;102978;-59
2023/04/10 02:40:51;;;;;;;10.43;9.20;;;;;;;4.81;76.04;99290.63;5034993;27;102880;-59
2023/04/10 02:43:18;;;;;;;10.77;9.63;;;;;;;4.82;75.50;99294.94;5049745;27;103625;-59
2023/04/10 02:45:47;;;;;;;12.67;11.30;;;;;;;4.51;77.54;99297.06;5031483;27;104528;-60
2023/04/10 02:48:23;;;;;;;12.27;10.97;;;;;;;4.19;80.15;99300.03;5029317;27;103122;-59
2023/04/10 02:50:57;;;;;;;10.93;9.13;;;;;;;4.18;79.53;99295.72;5053498;27;102960;-59
2023/04/10 02:53:28;;;;;;;11.00;9.27;;;;;;;4.53;78.17;99295.22;5025401;27;102713;-59
2023/04/10 02:56:01;;;;;;;9.57;8.57;;;;;;;4.65;76.83;99294.75;5029586;27;103269;-59
2023/04/10 02:58:31;;;;;;;9.77;7.90;;;;;;;4.74;75.96;99297.03;5040369;27;102946;-59
2023/04/10 03:01:00;;;;;;;12.70;10.70;;;;;;;4.46;77.44;99297.22;5032768;27;102756;-60
2023/04/10 03:03:44;;;;;;;11.13;9.57;;;;;;;4.57;78.19;99304.69;5037264;27;102780;-59
2023/04/10 03:06:18;;;;;;;12.10;10.80;;;;;;;4.54;76.82;99303.03;5029521;27;104191;-59
2023/04/10 03:08:47;;;;;;;11.80;9.80;;;;;;;4.48;77.84;99305.03;5040001;27;105370;-60
2023/04/10 03:11:15;;;;;;;14.00;10.33;;;;;;;4.69;76.30;99304.19;5048751;27;103183;-59
2023/04/10 03:13:43;;;;;;;11.67;10.10;;;;;;;4.24;79.10;99301.56;5027165;27;103202;-59
2023/04/10 03:16:11;;;;;;;11.23;10.03;;;;;;;4.24;79.45;99303.34;5032181;27;103317;-59
2023/04/10 03:18:42;;;;;;;13.53;11.47;;;;;;;3.99;79.69;99293.78;5030317;27;103262;-59
2023/04/10 03:21:11;;;;;;;12.40;11.03;;;;;;;4.04;80.77;99286.59;5039127;27;103274;-59
2023/04/10 03:23:39;;;;;;;11.40;10.20;;;;;;;4.32;79.62;99288.22;5050613;27;103056;-60
2023/04/10 03:26:07;;;;;;;12.80;10.27;;;;;;;4.49;78.83;99280.56;5051541;27;103394;-59
2023/04/10 03:28:40;;;;;;;12.00;10.23;;;;;;;4.45;77.83;99278.97;5033465;27;103052;-59
2023/04/10 03:31:11;;;;;;;11.80;9.97;;;;;;;4.38;78.72;99272.28;5045763;27;102682;-59
2023/04/10 03:33:41;;;;;;;14.10;10.53;;;;;;;4.19;79.42;99285.19;5029420;27;104015;-59
2023/04/10 03:36:11;;;;;;;12.83;9.77;;;;;;;4.07;80.53;99273.41;5027818;27;103297;-59
2023/04/10 03:38:40;;;;;;;11.70;10.50;;;;;;;4.09;79.83;99273.38;5046178;27;103225;-59
2023/04/10 03:41:09;;;;;;;12.10;10.50;;;;;;;4.12;80.36;99269.78;5026706;27;102836;-59
2023/04/10 03:43:37;;;;;;;11.50;10.20;;;;;;;3.93;80.88;99272.25;5034816;27;102717;-59
2023/04/10 03:46:06;;;;;;;12.80;10.40;;;;;;;4.04;80.64;99272.69;5030587;27;103435;-59
2023/04/10 03:48:40;;;;;;;11.57;8.50;;;;;;;4.15;80.26;99270.53;5024947;27;103228;-59
2023/04/10 03:51:11;;;;;;;10.40;7.70;;;;;;;4.26;78.84;99268.38;5035082;27;103256;-59
2023/04/10 03:53:39;;;;;;;10.97;9.63;;;;;;;4.18;79.58;99266.94;5052598;27;103811;-59
2023/04/10 03:56:12;;;;;;;9.43;7.97;;;;;;;4.14;79.49;99263.59;5051550;27;103316;-59
2023/04/10 03:58:42;;;;;;;8.97;7.60;;;;;;;4.27;78.77;99269.19;5044854;27;103201;-59
2023/04/10 04:01:14;;;;;;;10.87;9.73;;;;;;;3.96;79.17;99265.13;5035608;27;105200;-59
2023/04/10 04:04:06;;;;;;;11.57;9.33;;;;;;;4.05;79.48;99261.31;5034695;27;102746;-59
2023/04/10 04:06:54;;;;;;;10.07;8.57;;;;;;;4.22;79.01;99258.06;5058108;27;103213;-59
2023/04/10 04:09:29;;;;;;;9.87;8.67;;;;;;;4.58;76.68;99257.50;5041462;27;104285;-59
2023/04/10 04:12:03;;;;;;;10.17;8.90;;;;;;;4.46;76.35;99265.00;5050561;27;103103;-59
2023/04/10 04:14:50;;;;;;;9.30;7.23;;;;;;;4.02;79.39;99256.19;5060583;27;102718;-59
2023/04/10 04:17:36;;;;;;;10.87;8.70;;;;;;;3.99;79.32;99254.53;5053899;27;103730;-59
2023/04/10 04:20:08;;;;;;;10.77;8.97;;;;;;;4.14;79.32;99252.28;5056144;27;102996;-59
2023/04/10 04:22:59;;;;;;;9.17;7.60;;;;;;;4.26;79.05;99262.28;5054189;27;102610;-59
2023/04/10 04:26:05;;;;;;;11.40;9.50;;;;;;;4.24;78.24;99253.66;5011849;27;104716;-59
2023/04/10 04:28:52;;;;;;;11.97;9.20;;;;;;;3.92;79.81;99254.84;5010531;28;103318;-59
2023/04/10 04:31:31;;;;;;;12.67;10.30;;;;;;;3.29;82.98;99250.97;5043524;27;103418;-59
2023/04/10 04:34:15;;;;;;;12.73;10.07;;;;;;;3.31;84.12;99256.16;5035916;27;102923;-58
2023/04/10 04:36:50;;;;;;;13.83;10.73;;;;;;;3.34;86.02;99253.47;5035072;27;102788;-59
2023/04/10 04:39:38;;;;;;;13.27;11.03;;;;;;;3.66;84.00;99255.78;5063508;27;103623;-59
2023/04/10 04:42:12;;;;;;;13.80;10.37;;;;;;;3.31;85.89;99258.78;5057790;27;103152;-59
2023/04/10 04:44:58;;;;;;;15.50;10.70;;;;;;;3.19;86.56;99265.28;5056481;27;102754;-59
2023/04/10 04:48:01;;;;;;;12.67;10.23;;;;;;;3.65;85.45;99248.00;5025648;27;103789;-59
2023/04/10 04:50:56;;;;;;;11.40;9.67;;;;;;;4.16;82.03;99250.44;5052112;27;103336;-59
2023/04/10 04:53:53;;;;;;;13.03;10.77;;;;;;;4.25;80.75;99252.72;5047605;27;104118;-59
2023/04/10 04:56:41;;;;;;;14.13;10.83;;;;;;;3.91;80.74;99251.38;5057676;27;102924;-59
2023/04/10 04:59:23;;;;;;;13.70;11.23;;;;;;;4.02;81.46;99253.56;5034752;27;102812;-59
2023/04/10 05:01:59;;;;;;;13.53;11.20;;;;;;;3.78;83.51;99263.19;5035975;27;104254;-59
2023/04/10 05:04:41;;;;;;;14.60;12.10;;;;;;;3.71;84.30;99258.22;5038836;27;105452;-59
2023/04/10 05:07:30;;;;;;;16.83;12.73;;;;;;;4.09;83.46;99255.94;5056113;27;102732;-60
2023/04/10 05:10:18;;;;;;;20.17;15.17;;;;;;;4.14;82.49;99257.50;5063022;27;102664;-59
2023/04/10 05:13:00;;;;;;;19.40;14.40;;;;;;;4.20;83.60;99254.66;5037416;27;104040;-59
2023/04/10 05:15:38;;;;;;;18.60;12.80;;;;;;;4.08;84.72;99256.81;5056185;27;104178;-60
2023/04/10 05:18:36;;;;;;;16.60;12.77;;;;;;;4.30;84.32;99248.16;5039350;27;103104;-59
2023/04/10 05:21:23;;;;;;;14.30;10.83;;;;;;;4.66;82.79;99251.94;5050713;27;102611;-59
2023/04/10 05:24:29;;;;;;;12.03;9.60;;;;;;;4.70;83.21;99253.53;5025451;27;103252;-59
2023/04/10 05:27:12;;;;;;;11.93;9.43;;;;;;;4.99;80.77;99248.00;5042516;27;103223;-59
2023/04/10 05:30:02;;;;;;;13.40;11.00;;;;;;;4.53;82.43;99253.34;5037191;27;103184;-59
2023/04/10 05:32:48;;;;;;;12.83;11.43;;;;;;;4.31;84.93;99266.44;5059732;27;103206;-60
2023/04/10 05:35:49;;;;;;;14.00;11.77;;;;;;;4.78;83.61;99261.94;5003236;27;103943;-59
2023/04/10 05:38:34;;;;;;;12.40;10.00;;;;;;;5.31;81.62;99256.25;5037609;27;104764;-59
2023/04/10 05:41:22;;;;;;;12.13;9.87;;;;;;;5.51;78.49;99248.41;5014359;27;103049;-60
2023/04/10 05:44:17;;;;;;;10.67;8.67;;;;;;;5.56;77.57;99246.44;5044047;27;103736;-59
2023/04/10 05:47:01;;;;;;;11.60;9.53;;;;;;;5.59;76.29;99251.53;5037926;27;103779;-59
2023/04/10 05:49:38;;;;;;;14.37;10.37;;;;;;;5.69;76.31;99247.63;5054566;27;103256;-59
2023/04/10 05:52:18;;;;;;;11.77;8.83;;;;;;;5.72;77.86;99250.97;5053024;27;102951;-59
2023/04/10 05:54:59;;;;;;;10.87;9.37;;;;;;;6.18;75.93;99255.00;5068219;27;103154;-59
2023/04/10 05:57:42;;;;;;;10.53;8.30;;;;;;;6.36;74.89;99251.53;5060675;27;103035;-60
2023/04/10 06:00:28;;;;;;;12.97;10.87;;;;;;;6.31;74.32;99250.91;5056440;27;102980;-59
2023/04/10 06:03:20;;;;;;;12.80;10.67;;;;;;;6.21;75.89;99257.50;5055195;27;102610;-59
2023/04/10 06:06:09;;;;;;;14.40;10.53;;;;;;;6.17;77.13;99248.06;5055687;27;102680;-60
2023/04/10 06:08:36;;;;;;;13.20;10.30;;;;;;;6.30;75.95;99256.22;5051372;27;104708;-59
2023/04/10 06:11:05;;;;;;;10.83;9.63;;;;;;;6.65;74.94;99263.28;5030265;27;102632;-59
2023/04/10 06:13:33;;;;;;;10.27;9.17;;;;;;;6.81;73.97;99258.16;5060083;27;102572;-59
2023/04/10 06:16:02;;;;;;;11.37;9.27;;;;;;;6.95;73.51;99255.72;5035475;27;104029;-60
2023/04/10 06:18:34;;;;;;;12.60;9.70;;;;;;;7.06;73.35;99258.66;5026306;27;103187;-59
2023/04/10 06:21:05;;;;;;;12.03;8.90;;;;;;;7.04;73.21;99250.00;5029819;27;102998;-59
2023/04/10 06:23:38;;;;;;;10.63;8.70;;;;;;;7.14;72.67;99250.41;5036196;27;102723;-60
2023/04/10 06:26:07;;;;;;;13.57;10.30;;;;;;;7.15;72.18;99252.09;5045007;27;102698;-59
2023/04/10 06:28:40;;;;;;;13.30;11.40;;;;;;;7.20;71.85;99253.56;5029350;27;103046;-59
2023/04/10 06:31:14;;;;;;;12.40;10.37;;;;;;;7.25;71.87;99256.81;5034322;27;103784;-59
2023/04/10 06:33:46;;;;;;;9.23;8.23;;;;;;;7.26;72.04;99255.91;5029691;27;102702;-59
2023/04/10 06:36:17;;;;;;;9.97;8.67;;;;;;;7.49;71.43;99255.56;5039620;27;103161;-59
2023/04/10 06:38:51;;;;;;;13.43;9.60;;;;;;;7.58;71.98;99247.22;5039639;27;102998;-61
2023/04/10 06:41:21;;;;;;;13.73;10.90;;;;;;;7.69;71.92;99249.28;5050194;27;103080;-59
2023/04/10 06:44:04;;;;;;;11.03;8.97;;;;;;;7.92;71.29;99246.31;5030931;27;102904;-60
2023/04/10 06:46:54;;;;;;;11.27;9.23;;;;;;;8.10;70.30;99247.13;5029430;27;103196;-59
2023/04/10 06:49:45;;;;;;;11.20;9.73;;;;;;;8.25;69.97;99242.81;5025384;27;103575;-67
2023/04/10 06:52:14;;;;;;;9.87;8.57;;;;;;;8.37;70.02;99242.16;5022607;27;103064;-59
2023/04/10 06:54:42;;;;;;;9.60;7.50;;;;;;;8.30;69.45;99251.34;5027926;27;102766;-60
2023/04/10 06:57:11;;;;;;;10.03;7.97;;;;;;;8.55;68.24;99249.06;5051529;27;102996;-60
2023/04/10 06:59:40;;;;;;;10.60;8.50;;;;;;;8.37;68.92;99242.16;5048183;27;103261;-59
2023/04/10 07:02:08;;;;;;;10.57;7.90;;;;;;;8.74;68.58;99236.56;5055801;27;103216;-60
2023/04/10 07:04:37;;;;;;;9.47;7.60;;;;;;;9.00;66.69;99232.44;5048404;27;102980;-57
2023/04/10 07:07:08;;;;;;;8.73;7.47;;;;;;;9.28;65.58;99227.28;5056318;27;102717;-57
2023/04/10 07:09:37;;;;;;;11.13;9.20;;;;;;;9.32;65.32;99226.13;5060630;27;103372;-58
2023/04/10 07:12:05;;;;;;;9.73;7.57;;;;;;;9.53;65.29;99227.50;5052667;27;103217;-58
2023/04/10 07:14:34;;;;;;;9.90;8.70;;;;;;;9.66;64.00;99224.97;5061104;27;102974;-58
2023/04/10 07:17:02;;;;;;;10.10;8.57;;;;;;;9.68;63.21;99226.59;5039631;27;102746;-57
2023/04/10 07:19:30;;;;;;;9.93;7.67;;;;;;;9.82;61.13;99225.75;5063289;27;104999;-58
2023/04/10 07:21:58;;;;;;;9.30;8.07;;;;;;;9.88;60.35;99223.56;5062973;27;103267;-58
2023/04/10 07:24:27;;;;;;;8.47;7.47;;;;;;;10.12;59.49;99215.94;5063643;27;102598;-58
2023/04/10 07:26:56;;;;;;;7.67;6.87;;;;;;;10.31;59.94;99210.38;5054062;27;102981;-58
2023/04/10 07:29:24;;;;;;;9.00;8.00;;;;;;;10.15;59.28;99212.31;5055725;27;103822;-56
2023/04/10 07:31:51;;;;;;;9.00;7.43;;;;;;;10.82;58.37;99217.63;5054485;27;103258;-59
2023/04/10 07:34:19;;;;;;;8.90;7.57;;;;;;;10.64;56.36;99218.81;5061431;27;102618;-59
2023/04/10 07:36:47;;;;;;;9.00;7.57;;;;;;;11.26;55.84;99221.75;5054116;27;103629;-60
2023/04/10 07:39:15;;;;;;;8.53;7.73;;;;;;;11.49;55.81;99224.56;5049906;27;104140;-59
2023/04/10 07:41:45;;;;;;;8.30;6.63;;;;;;;11.82;52.76;99218.78;5056298;27;103167;-60
2023/04/10 07:44:13;;;;;;;7.67;6.87;;;;;;;11.62;53.37;99214.00;5032212;27;103007;-60
2023/04/10 07:46:43;;;;;;;7.97;7.07;;;;;;;11.13;53.63;99220.88;5053032;27;102965;-60
2023/04/10 07:49:11;;;;;;;8.50;6.07;;;;;;;12.16;53.15;99214.63;5058983;27;103184;-60
2023/04/10 07:51:39;;;;;;;7.53;6.73;;;;;;;12.96;51.65;99218.53;5055023;27;103180;-60
2023/04/10 07:54:07;;;;;;;7.10;6.40;;;;;;;12.97;49.53;99212.28;5053045;27;102702;-60
2023/04/10 07:56:35;;;;;;;7.13;6.43;;;;;;;12.56;51.57;99217.94;5048429;27;104245;-60
2023/04/10 07:59:06;;;;;;;6.23;5.50;;;;;;;13.76;49.83;99212.41;5059454;27;103359;-60
2023/04/10 08:01:36;;;;;;;6.13;5.43;;;;;;;13.56;49.40;99207.81;5045559;27;103189;-60
2023/04/10 08:04:05;;;;;;;6.47;5.87;;;;;;;13.76;49.37;99202.66;5058147;27;102660;-60
2023/04/10 08:06:33;;;;;;;7.53;6.27;;;;;;;14.37;47.66;99197.88;5036801;27;103980;-60
2023/04/10 08:09:01;;;;;;;5.77;5.13;;;;;;;14.58;48.49;99200.59;5054235;27;103339;-61
2023/04/10 08:11:31;;;;;;;6.70;6.03;;;;;;;14.27;46.58;99197.72;5049137;27;103051;-61
2023/04/10 08:14:01;;;;;;;6.70;6.00;;;;;;;14.47;47.88;99202.34;5031071;27;102773;-60
2023/04/10 08:16:33;;;;;;;6.50;5.90;;;;;;;14.78;47.34;99203.34;5054391;27;102731;-60
2023/04/10 08:19:02;;;;;;;7.00;6.30;;;;;;;14.53;46.33;99198.34;5032604;27;104349;-60
2023/04/10 08:21:33;;;;;;;7.27;6.03;;;;;;;15.63;45.07;99196.25;5053085;27;102967;-61
2023/04/10 08:24:05;;;;;;;6.67;5.97;;;;;;;15.60;45.37;99191.16;5033762;27;102824;-60
2023/04/10 08:26:34;;;;;;;6.63;6.03;;;;;;;16.01;45.01;99193.78;5056018;27;103415;-60
2023/04/10 08:29:07;;;;;;;11.47;6.10;;;;;;;15.92;43.75;99185.72;5048452;27;104750;-61
2023/04/10 08:31:40;;;;;;;6.20;5.60;;;;;;;15.90;45.37;99193.00;5025024;27;103009;-60
2023/04/10 08:34:09;;;;;;;7.30;5.60;;;;;;;16.16;44.08;99183.63;5054332;27;104663;-61
2023/04/10 08:36:37;;;;;;;5.67;5.07;;;;;;;16.41;43.28;99176.97;5033361;27;104004;-61
2023/04/10 08:39:05;;;;;;;5.70;5.20;;;;;;;16.62;43.97;99181.25;5049366;27;103316;-60
2023/04/10 08:41:35;;;;;;;6.20;5.40;;;;;;;17.01;42.55;99175.97;5054343;27;103305;-60
2023/04/10 08:44:04;;;;;;;6.77;6.10;;;;;;;17.00;41.79;99174.28;5049570;27;102617;-61
2023/04/10 08:46:55;;;;;;;5.83;5.33;;;;;;;16.86;39.53;99167.53;5035129;27;102681;-60
2023/04/10 08:50:13;;;;;;;4.73;4.33;;;;;;;17.22;41.78;99163.31;5042529;27;103353;-60
2023/04/10 08:52:45;;;;;;;4.73;4.33;;;;;;;17.22;40.71;99163.31;5031172;27;103251;-61
2023/04/10 08:55:15;;;;;;;4.30;3.83;;;;;;;16.90;40.91;99152.09;5049150;27;103750;-60
2023/04/10 08:57:45;;;;;;;4.78;4.25;;;;;;;17.82;40.18;99141.56;5034234;27;102724;-60
2023/04/10 09:00:39;;;;;;;3.93;3.60;;;;;;;18.27;38.72;99146.19;5032964;27;102624;-60
2023/04/10 09:03:19;;;;;;;4.32;3.92;;;;;;;18.16;37.54;99149.06;5031069;27;103113;-60
2023/04/10 09:05:58;;;;;;;3.85;3.55;;;;;;;18.04;37.17;99145.75;5031669;27;104452;-60
2023/04/10 09:08:28;;;;;;;3.70;3.40;;;;;;;17.45;37.01;99154.03;5048625;27;104262;-60
2023/04/10 09:10:56;;;;;;;3.30;3.00;;;;;;;17.73;36.52;99160.31;5049931;27;103258;-60
2023/04/10 09:13:46;;;;;;;3.72;3.42;;;;;;;18.35;36.61;99147.13;5036798;27;104253;-60
2023/04/10 09:16:16;;;;;;;3.90;3.60;;;;;;;18.41;36.35;99148.38;5034479;27;102768;-60
2023/04/10 09:19:38;;;;;;;3.58;3.17;;;;;;;18.72;35.87;99143.56;5037523;27;103617;-60
2023/04/10 09:22:25;;;;;;;3.67;3.00;;;;;;;18.68;34.34;99143.03;5043692;27;103021;-60
2023/04/10 09:25:04;;;;;;;3.92;3.63;;;;;;;19.00;35.44;99151.34;5038965;27;102971;-67
2023/04/10 09:27:34;;;;;;;4.00;3.60;;;;;;;19.16;35.50;99144.47;5038066;27;102794;-67
2023/04/10 09:30:03;;;;;;;3.33;3.13;;;;;;;19.15;33.63;99129.41;5048351;27;102619;-67
2023/04/10 09:32:41;;;;;;;3.30;3.00;;;;;;;19.79;36.10;99131.75;5048884;27;103812;-66
2023/04/10 09:35:13;;;;;;;3.47;3.17;;;;;;;19.10;34.56;99129.88;5054803;27;103364;-66
2023/04/10 09:37:46;;;;;;;3.42;3.13;;;;;;;19.42;34.26;99123.97;5043508;27;102802;-65
2023/04/10 09:40:21;;;;;;;3.63;3.33;;;;;;;19.43;33.07;99120.28;5060403;27;102985;-65
2023/04/10 09:42:50;;;;;;;3.03;2.83;;;;;;;18.93;34.77;99107.47;5049714;27;103235;-65
2023/04/10 09:46:05;;;;;;;3.50;3.10;;;;;;;19.91;35.18;99100.97;5056325;27;102920;-65
2023/04/10 09:48:35;;;;;;;3.28;3.00;;;;;;;19.67;34.61;99096.34;5057699;27;102745;-66
2023/04/10 09:51:04;;;;;;;3.95;3.15;;;;;;;19.35;34.37;99091.56;5055351;27;102677;-66
2023/04/10 09:53:57;;;;;;;4.15;3.05;;;;;;;20.08;34.57;99073.22;5057102;27;103303;-67
2023/04/10 09:56:41;;;;;;;2.97;2.78;;;;;;;20.87;33.96;99070.94;5038253;27;103052;-61
2023/04/10 09:59:22;;;;;;;3.00;2.80;;;;;;;20.32;33.55;99069.84;5037937;27;102990;-59
2023/04/10 10:01:50;;;;;;;3.10;2.80;;;;;;;19.62;33.05;99063.81;5054742;27;103895;-59
2023/04/10 10:04:20;;;;;;;3.92;3.38;;;;;;;20.08;32.58;99058.00;5055360;27;103339;-59
2023/04/10 10:06:50;;;;;;;3.30;3.00;;;;;;;20.47;32.20;99065.50;5034397;27;103228;-58
2023/04/10 10:09:18;;;;;;;3.40;3.10;;;;;;;20.03;32.64;99054.09;5053780;27;102678;-59
2023/04/10 10:11:48;;;;;;;3.13;2.83;;;;;;;19.97;32.71;99055.59;5053903;27;103902;-59
2023/04/10 10:14:20;;;;;;;3.25;2.92;;;;;;;19.53;32.16;99052.22;5049065;27;105473;-59
2023/04/10 10:16:50;;;;;;;3.22;3.00;;;;;;;20.05;32.41;99047.56;5049153;27;103384;-59
2023/04/10 10:19:25;;;;;;;3.00;2.78;;;;;;;20.36;32.30;99049.72;5053656;27;102656;-60
2023/04/10 10:21:56;;;;;;;3.05;2.75;;;;;;;20.46;31.90;99043.22;5048753;27;102982;-59
2023/04/10 10:24:27;;;;;;;6.55;5.95;;;;;;;20.11;31.24;99038.88;5031403;27;103435;-59
2023/04/10 10:26:57;;;;;;;3.97;2.63;;;;;;;20.46;32.26;99028.94;5046449;27;102969;-59
2023/04/10 10:29:25;;;;;;;2.97;2.78;;;;;;;20.61;30.92;99027.28;5053743;27;102716;-58
2023/04/10 10:31:55;;;;;;;3.33;3.03;;;;;;;20.48;30.61;99019.72;5034344;27;103271;-59
2023/04/10 10:34:23;;;;;;;2.30;2.13;;;;;;;19.41;31.03;99015.97;5045117;27;103338;-59
2023/04/10 10:36:51;;;;;;;2.80;2.60;;;;;;;20.75;31.02;99007.81;5029074;27;103521;-59
2023/04/10 10:39:32;;;;;;;2.45;2.25;;;;;;;20.97;31.66;99004.44;5052761;27;102942;-59
2023/04/10 10:42:08;;;;;;;2.75;2.55;;;;;;;20.57;30.85;99002.63;5059815;27;103537;-59
2023/04/10 10:44:43;;;;;;;2.55;2.35;;;;;;;20.50;31.32;99001.59;5045827;27;103273;-58
2023/04/10 10:47:17;;;;;;;2.78;2.58;;;;;;;20.51;30.94;98989.88;5054728;27;103011;-59
2023/04/10 10:49:53;;;;;;;2.38;2.17;;;;;;;20.28;31.27;98993.34;5045381;27;103110;-60
2023/04/10 10:52:45;;;;;;;2.97;2.45;;;;;;;20.36;31.75;98985.31;5049641;27;103313;-59
2023/04/10 10:55:35;;;;;;;3.13;2.25;;;;;;;21.00;31.68;98985.31;5057689;27;103420;-59
2023/04/10 10:58:05;;;;;;;2.45;2.25;;;;;;;20.51;31.02;98978.28;5049723;27;103409;-58
2023/04/10 11:01:11;;;;;;;2.40;2.20;;;;;;;20.50;31.39;98976.59;5048936;27;102817;-59
2023/04/10 11:03:40;;;;;;;2.47;2.10;;;;;;;20.53;32.25;98981.66;5049836;27;102759;-57
2023/04/10 11:06:11;;;;;;;3.90;1.92;;;;;;;20.21;31.27;98977.88;5051510;27;103350;-56
2023/04/10 11:08:45;;;;;;;2.40;2.20;;;;;;;20.85;31.28;98965.56;5050099;27;103178;-59
2023/04/10 11:11:16;;;;;;;2.63;2.10;;;;;;;21.15;31.98;98969.38;5050955;27;103030;-59
2023/04/10 11:14:20;;;;;;;2.25;2.05;;;;;;;21.08;31.42;98971.09;5057768;27;103106;-59
2023/04/10 11:16:49;;;;;;;2.88;2.65;;;;;;;21.53;30.99;98962.41;5044760;27;103254;-59
2023/04/10 11:19:19;;;;;;;2.70;2.33;;;;;;;21.67;30.78;98962.50;5051931;27;103180;-59
2023/04/10 11:22:05;;;;;;;1.98;1.88;;;;;;;21.87;28.97;98957.56;5049365;27;102749;-59
2023/04/10 11:24:58;;;;;;;1.85;1.70;;;;;;;21.65;30.01;98953.75;5034330;27;104174;-59
2023/04/10 11:27:51;;;;;;;2.83;2.03;;;;;;;22.17;29.49;98951.34;5053599;27;104060;-59
2023/04/10 11:30:33;;;;;;;2.03;1.92;;;;;;;21.58;29.07;98951.97;5045936;27;103274;-59
2023/04/10 11:33:03;;;;;;;2.05;1.85;;;;;;;22.00;29.34;98951.63;5054332;27;102685;-60
2023/04/10 11:35:32;;;;;;;2.17;1.92;;;;;;;22.73;27.95;98933.09;5049819;27;104121;-59
2023/04/10 11:38:11;;;;;;;1.73;1.63;;;;;;;22.00;27.05;98944.38;5048971;27;103346;-59
2023/04/10 11:40:56;;;;;;;2.05;1.65;;;;;;;21.65;27.26;98942.16;5048300;27;103344;-59
2023/04/10 11:43:26;;;;;;;1.70;1.60;;;;;;;21.51;28.22;98945.59;5045882;27;102725;-58
2023/04/10 11:46:02;;;;;;;1.60;1.50;;;;;;;21.65;26.49;98943.00;5053196;27;102843;-59
2023/04/10 11:48:30;;;;;;;1.25;1.15;;;;;;;21.58;25.22;98935.84;5013170;27;104142;-60
2023/04/10 11:51:00;;;;;;;1.60;1.50;;;;;;;22.01;26.55;98943.34;5010185;27;103229;-59
2023/04/10 11:53:28;;;;;;;2.80;1.70;;;;;;;21.73;28.52;98947.50;5010233;27;102682;-60
2023/04/10 11:55:57;;;;;;;1.70;1.60;;;;;;;22.17;26.63;98937.06;4988084;27;102752;-59
2023/04/10 11:58:29;;;;;;;1.67;1.35;;;;;;;22.51;26.15;98930.22;5012803;27;103332;-59
2023/04/10 12:01:02;;;;;;;2.05;1.50;;;;;;;22.41;26.82;98916.16;5010749;27;102974;-59
2023/04/10 12:03:39;;;;;;;1.55;1.45;;;;;;;22.02;26.97;98910.06;5013966;27;102928;-59
2023/04/10 12:06:10;;;;;;;1.65;1.55;;;;;;;22.88;25.80;98901.63;5014050;27;103962;-59